createdAt,value
2022-08-01T00:01:49.785Z,100679.09
2022-08-01T00:08:51.507Z,100686.69
2022-08-01T00:15:54.073Z,100687.72
2022-08-01T00:22:56.076Z,100704.78
2022-08-01T00:30:12.121Z,100705.78
2022-08-01T00:37:16.047Z,100694.25
2022-08-01T00:44:17.903Z,100700.63
2022-08-01T00:51:19.498Z,100700.44
2022-08-01T00:58:21.106Z,100705.44
2022-08-01T01:05:25.728Z,100695.81
2022-08-01T01:12:56.904Z,100673.91
2022-08-01T01:19:58.726Z,100676.50
2022-08-01T01:27:25.738Z,100681.97
2022-08-01T01:34:27.342Z,100677.00
2022-08-01T01:41:30.043Z,100679.03
2022-08-01T01:48:31.686Z,100669.41
2022-08-01T01:55:33.536Z,100673.53
2022-08-01T02:02:52.736Z,100676.25
2022-08-01T02:09:54.755Z,100682.44
2022-08-01T02:16:56.341Z,100676.22
2022-08-01T02:24:21.301Z,100676.53
2022-08-01T02:31:33.140Z,100684.91
2022-08-01T02:38:41.056Z,100685.00
2022-08-01T02:45:44.828Z,100685.59
2022-08-01T02:52:49.753Z,100686.41
2022-08-01T02:59:51.444Z,100683.50
2022-08-01T03:06:54.036Z,100687.56
2022-08-01T03:13:56.436Z,100691.66
2022-08-01T03:20:59.127Z,100686.50
2022-08-01T03:28:02.887Z,100687.13
2022-08-01T03:35:04.947Z,100704.56
2022-08-01T03:42:10.571Z,100708.31
2022-08-01T03:49:24.969Z,100706.63
2022-08-01T03:56:26.783Z,100707.94
2022-08-01T04:03:28.389Z,100710.03
2022-08-01T04:10:30.253Z,100711.94
2022-08-01T04:17:31.875Z,100706.31
2022-08-01T04:24:33.747Z,100707.66
2022-08-01T04:31:35.520Z,100710.69
2022-08-01T04:38:37.713Z,100713.81
2022-08-01T04:45:40.035Z,100705.53
2022-08-01T04:52:43.078Z,100723.22
2022-08-01T04:59:45.019Z,100727.16
2022-08-01T05:06:46.636Z,100723.00
2022-08-01T05:13:48.354Z,100731.00
2022-08-01T05:20:50.093Z,100740.53
2022-08-01T05:27:51.840Z,100740.69
2022-08-01T05:34:53.639Z,100738.59
2022-08-01T05:41:55.286Z,100737.03
2022-08-01T05:48:56.987Z,100745.66
2022-08-01T05:55:58.722Z,100743.44
2022-08-01T06:03:00.335Z,100758.34
2022-08-01T06:10:01.963Z,100766.94
2022-08-01T06:17:03.560Z,100762.09
2022-08-01T06:24:05.677Z,100766.03
2022-08-01T06:31:07.340Z,100773.09
2022-08-01T06:38:08.982Z,100773.66
2022-08-01T06:45:11.466Z,100778.03
2022-08-01T06:52:13.151Z,100774.38
2022-08-01T06:59:14.832Z,100780.88
2022-08-01T07:06:16.423Z,100778.34
2022-08-01T07:13:22.112Z,100784.22
2022-08-01T07:20:23.727Z,100783.13
2022-08-01T07:27:26.003Z,100788.28
2022-08-01T07:34:27.955Z,100794.84
2022-08-01T07:41:45.609Z,100794.53
2022-08-01T07:48:51.268Z,100797.06
2022-08-01T07:55:52.970Z,100812.91
2022-08-01T08:02:54.753Z,100818.38
2022-08-01T08:09:56.466Z,100824.69
2022-08-01T08:16:58.101Z,100818.81
2022-08-01T08:24:18.092Z,100826.31
2022-08-01T08:31:25.421Z,100831.34
2022-08-01T08:38:41.323Z,100827.25
2022-08-01T08:45:59.004Z,100836.78
2022-08-01T08:53:02.220Z,100832.69
2022-08-01T09:00:10.355Z,100837.41
2022-08-01T09:07:12.746Z,100849.00
2022-08-01T09:14:37.074Z,100842.16
2022-08-01T09:21:38.702Z,100843.44
2022-08-01T09:28:46.144Z,100858.00
2022-08-01T09:35:58.804Z,100866.06
2022-08-01T09:43:11.975Z,100874.81
2022-08-01T09:50:17.511Z,100877.53
2022-08-01T09:57:19.930Z,100882.06
2022-08-01T10:04:22.100Z,100891.31
2022-08-01T10:11:23.724Z,100898.75
2022-08-01T10:18:37.956Z,100899.94
2022-08-01T10:25:44.032Z,100901.31
2022-08-01T10:32:50.648Z,100902.69
2022-08-01T10:40:08.565Z,100907.84
2022-08-01T10:47:22.514Z,100911.31
2022-08-01T10:54:27.960Z,100911.63
2022-08-01T11:01:37.748Z,100915.38
2022-08-01T11:08:40.164Z,100920.31
2022-08-01T11:15:50.114Z,100922.56
2022-08-01T11:23:02.418Z,100924.16
2022-08-01T11:30:13.260Z,100937.56
2022-08-01T11:37:30.562Z,100955.44
2022-08-01T11:44:34.406Z,100964.69
2022-08-01T11:51:36.066Z,100967.19
2022-08-01T11:58:37.706Z,100961.28
2022-08-01T12:05:43.043Z,100961.97
2022-08-01T12:12:49.500Z,100961.66
2022-08-01T12:19:51.194Z,100951.75
2022-08-01T12:26:52.895Z,100957.16
2022-08-01T12:33:54.503Z,100965.22
2022-08-01T12:40:56.164Z,100965.69
2022-08-01T12:48:01.669Z,100950.78
2022-08-01T12:55:11.428Z,100962.72
2022-08-01T13:02:13.482Z,100954.56
2022-08-01T13:09:15.129Z,100954.91
2022-08-01T13:16:27.940Z,100950.59
2022-08-01T13:24:02.106Z,100959.56
2022-08-01T13:31:06.948Z,100961.50
2022-08-01T13:38:08.527Z,100964.44
2022-08-01T13:45:14.151Z,100957.88
2022-08-01T13:52:16.733Z,100963.22
2022-08-01T13:59:18.471Z,100980.81
2022-08-01T14:06:21.507Z,100988.31
2022-08-01T14:13:23.758Z,100984.56
2022-08-01T14:20:25.587Z,100992.50
2022-08-01T14:27:27.317Z,100995.94
2022-08-01T14:34:28.907Z,100995.22
2022-08-01T14:41:30.971Z,100995.31
2022-08-01T14:48:32.796Z,100983.53
2022-08-01T14:55:36.919Z,100998.97
2022-08-01T15:02:42.074Z,101007.47
2022-08-01T15:09:43.761Z,101008.19
2022-08-01T15:16:45.383Z,101019.69
2022-08-01T15:23:47.025Z,101037.47
2022-08-01T15:30:48.681Z,101031.09
2022-08-01T15:37:50.309Z,101032.28
2022-08-01T15:44:51.938Z,101033.84
2022-08-01T15:51:53.553Z,101044.19
2022-08-01T15:58:55.207Z,101051.59
2022-08-01T16:05:56.857Z,101040.50
2022-08-01T16:12:58.533Z,101043.75
2022-08-01T16:20:08.393Z,101048.75
2022-08-01T16:27:10.000Z,101042.50
2022-08-01T16:34:13.086Z,101041.50
2022-08-01T16:41:19.383Z,101037.44
2022-08-01T16:48:22.131Z,101046.41
2022-08-01T16:55:23.940Z,101043.66
2022-08-01T17:02:25.641Z,101039.19
2022-08-01T17:09:27.352Z,101037.81
2022-08-01T17:16:28.942Z,101058.69
2022-08-01T17:23:31.787Z,101045.19
2022-08-01T17:30:33.598Z,101052.44
2022-08-01T17:37:35.211Z,101049.53
2022-08-01T17:44:36.897Z,101051.59
2022-08-01T17:51:39.166Z,101064.50
2022-08-01T17:58:51.641Z,101064.69
2022-08-01T18:05:54.126Z,101064.66
2022-08-01T18:12:57.495Z,101060.16
2022-08-01T18:19:59.175Z,101054.50
2022-08-01T18:27:00.810Z,101060.13
2022-08-01T18:34:02.483Z,101063.03
2022-08-01T18:41:05.503Z,101072.47
2022-08-01T18:48:07.142Z,101090.41
2022-08-01T18:55:09.129Z,101092.47
2022-08-01T19:02:10.824Z,101100.38
2022-08-01T19:09:12.495Z,101107.56
2022-08-01T19:16:16.429Z,101113.06
2022-08-01T19:23:36.807Z,101131.28
2022-08-01T19:30:38.503Z,101135.75
2022-08-01T19:37:45.676Z,101140.19
2022-08-01T19:44:47.596Z,101146.63
2022-08-01T19:51:58.359Z,101152.47
2022-08-01T19:59:00.524Z,101152.41
2022-08-01T20:06:03.360Z,101164.38
2022-08-01T20:13:05.298Z,101178.25
2022-08-01T20:20:07.555Z,101187.28
2022-08-01T20:27:09.714Z,101188.63
2022-08-01T20:34:15.660Z,101196.50
2022-08-01T20:41:18.322Z,101213.44
2022-08-01T20:48:20.334Z,101211.50
2022-08-01T20:55:21.935Z,101222.34
2022-08-01T21:03:04.803Z,101224.25
2022-08-01T21:10:15.156Z,101233.25
2022-08-01T21:17:38.674Z,101236.78
2022-08-01T21:24:57.731Z,101239.81
2022-08-01T21:32:11.570Z,101244.00
2022-08-01T21:39:13.285Z,101255.75
2022-08-01T21:46:16.083Z,101254.66
2022-08-01T21:53:41.246Z,101268.69
2022-08-01T22:00:53.144Z,101259.59
2022-08-01T22:07:59.150Z,101269.44
2022-08-01T22:15:05.139Z,101266.88
2022-08-01T22:22:45.293Z,101274.38
2022-08-01T22:29:29.099Z,101284.69
2022-08-01T22:36:30.883Z,101284.53
2022-08-01T22:43:57.220Z,101281.69
2022-08-01T22:51:26.704Z,101299.47
2022-08-01T22:58:30.540Z,101294.28
2022-08-01T23:05:33.102Z,101298.31
2022-08-01T23:12:34.789Z,101294.44
2022-08-01T23:19:36.377Z,101301.34
2022-08-01T23:26:38.351Z,101295.16
2022-08-01T23:33:39.974Z,101301.06
2022-08-01T23:40:41.836Z,101302.22
2022-08-01T23:47:43.482Z,101295.69
2022-08-01T23:54:45.090Z,101298.44
